createdAt,value
2022-12-20T00:00:55.495Z,19.00
2022-12-20T00:03:23.149Z,19.38
2022-12-20T00:05:50.884Z,19.27
2022-12-20T00:08:18.684Z,19.65
2022-12-20T00:10:46.771Z,18.70
2022-12-20T00:13:14.626Z,19.90
2022-12-20T00:15:42.224Z,21.48
2022-12-20T00:18:11.299Z,21.05
2022-12-20T00:20:38.996Z,20.27
2022-12-20T00:23:06.578Z,19.20
2022-12-20T00:25:34.200Z,20.52
2022-12-20T00:28:03.134Z,20.83
2022-12-20T00:30:30.750Z,19.20
2022-12-20T00:32:58.267Z,20.02
2022-12-20T00:35:27.135Z,19.92
2022-12-20T00:37:54.633Z,19.25
2022-12-20T00:40:22.163Z,20.20
2022-12-20T00:42:51.150Z,19.20
2022-12-20T00:45:18.675Z,21.90
2022-12-20T00:47:47.405Z,18.77
2022-12-20T00:50:16.887Z,18.73
2022-12-20T00:52:45.829Z,19.05
2022-12-20T00:55:13.470Z,18.58
2022-12-20T00:57:43.638Z,20.38
2022-12-20T01:00:12.627Z,19.55
2022-12-20T01:02:40.221Z,19.25
2022-12-20T01:05:08.561Z,18.77
2022-12-20T01:07:36.067Z,18.48
2022-12-20T01:10:05.298Z,20.20
2022-12-20T01:12:32.860Z,18.83
2022-12-20T01:15:00.425Z,18.95
2022-12-20T01:17:27.995Z,19.20
2022-12-20T01:19:55.593Z,19.05
2022-12-20T01:22:23.136Z,18.40
2022-12-20T01:24:50.892Z,18.02
2022-12-20T01:27:19.877Z,18.65
2022-12-20T01:29:47.577Z,17.75
2022-12-20T01:32:15.472Z,19.88
2022-12-20T01:34:43.313Z,18.73
2022-12-20T01:37:11.195Z,18.17
2022-12-20T01:39:38.860Z,17.98
2022-12-20T01:42:06.754Z,18.20
2022-12-20T01:44:56.042Z,19.17
2022-12-20T01:47:24.758Z,16.50
2022-12-20T01:49:55.147Z,17.98
2022-12-20T01:52:29.517Z,16.98
2022-12-20T01:55:05.343Z,17.63
2022-12-20T01:57:39.339Z,18.10
2022-12-20T02:00:12.053Z,17.15
2022-12-20T02:02:40.354Z,17.58
2022-12-20T02:05:08.832Z,17.40
2022-12-20T02:07:39.173Z,17.92
2022-12-20T02:10:08.850Z,19.25
2022-12-20T02:12:41.291Z,19.38
2022-12-20T02:15:34.190Z,18.33
2022-12-20T02:18:12.368Z,17.60
2022-12-20T02:21:07.578Z,19.95
2022-12-20T02:23:59.095Z,17.40
2022-12-20T02:26:49.135Z,17.33
2022-12-20T02:29:25.906Z,16.80
2022-12-20T02:32:02.538Z,15.80
2022-12-20T02:34:33.659Z,17.30
2022-12-20T02:37:01.298Z,15.70
2022-12-20T02:39:32.019Z,14.95
2022-12-20T02:42:05.757Z,14.95
2022-12-20T02:44:53.776Z,15.43
2022-12-20T02:47:27.226Z,14.18
2022-12-20T02:49:56.728Z,14.55
2022-12-20T02:52:30.919Z,15.73
2022-12-20T02:55:01.025Z,15.05
2022-12-20T02:57:36.170Z,14.57
2022-12-20T03:00:07.629Z,16.08
2022-12-20T03:02:51.519Z,14.98
2022-12-20T03:05:21.202Z,15.18
2022-12-20T03:07:48.783Z,14.23
2022-12-20T03:10:16.544Z,14.80
2022-12-20T03:12:44.158Z,14.55
2022-12-20T04:54:44.822Z,17.75
2022-12-20T05:05:59.228Z,13.80
2022-12-20T05:15:10.076Z,15.27
2022-12-20T05:39:58.668Z,12.95
2022-12-20T05:42:26.590Z,12.80
2022-12-20T05:44:57.095Z,14.10
2022-12-20T05:47:24.894Z,12.60
2022-12-20T06:30:45.854Z,13.73
2022-12-20T06:33:15.550Z,12.85
2022-12-20T06:35:43.136Z,14.00
2022-12-20T06:38:10.705Z,13.25
2022-12-20T06:40:38.348Z,13.07
2022-12-20T06:43:05.942Z,12.05
2022-12-20T06:45:39.266Z,11.75
2022-12-20T06:48:10.670Z,11.82
2022-12-20T06:50:38.659Z,12.57
2022-12-20T06:53:06.344Z,13.05
2022-12-20T06:55:34.040Z,13.15
2022-12-20T06:58:01.735Z,12.20
2022-12-20T07:00:29.320Z,12.88
2022-12-20T07:02:57.151Z,12.20
2022-12-20T07:05:26.308Z,12.20
2022-12-20T07:07:53.952Z,11.00
2022-12-20T07:10:21.684Z,10.85
2022-12-20T07:12:49.292Z,11.43
2022-12-20T07:15:18.941Z,12.20
2022-12-20T07:17:46.516Z,13.73
2022-12-20T07:20:14.945Z,13.90
2022-12-20T07:22:44.119Z,12.57
2022-12-20T07:25:12.202Z,13.45
2022-12-20T07:27:40.090Z,10.80
2022-12-20T07:30:08.929Z,12.40
2022-12-20T07:32:36.643Z,11.88
2022-12-20T07:35:04.270Z,11.10
2022-12-20T07:37:32.887Z,11.70
2022-12-20T07:40:01.954Z,11.00
2022-12-20T07:42:35.791Z,10.82
2022-12-20T07:45:06.500Z,11.15
2022-12-20T07:47:35.502Z,10.40
2022-12-20T07:50:03.361Z,9.77
2022-12-20T07:52:35.202Z,9.75
2022-12-20T07:55:08.022Z,10.93
2022-12-20T08:00:07.363Z,9.60
2022-12-20T08:02:39.945Z,9.18
2022-12-20T08:07:39.507Z,9.32
2022-12-20T08:10:12.329Z,9.93
2022-12-20T08:15:09.645Z,8.85
2022-12-20T08:17:37.513Z,10.18
2022-12-20T08:20:06.925Z,12.00
2022-12-20T08:22:34.637Z,10.05
2022-12-20T08:25:02.411Z,9.90
2022-12-20T08:27:31.577Z,8.77
2022-12-20T08:29:59.232Z,8.55
2022-12-20T08:32:27.149Z,8.68
2022-12-20T08:34:55.385Z,7.65
2022-12-20T08:37:23.098Z,9.70
2022-12-20T08:39:50.978Z,7.78
2022-12-20T08:42:18.735Z,8.27
2022-12-20T08:44:47.892Z,9.63
2022-12-20T08:47:15.826Z,8.63
2022-12-20T08:49:47.651Z,8.43
2022-12-20T08:52:16.258Z,7.57
2022-12-20T08:54:44.109Z,9.98
2022-12-20T08:57:11.918Z,8.98
2022-12-20T08:59:39.694Z,7.38
2022-12-20T09:02:09.032Z,7.25
2022-12-20T09:04:36.966Z,8.75
2022-12-20T09:07:04.870Z,8.90
2022-12-20T09:09:32.677Z,8.50
2022-12-20T09:12:00.397Z,8.13
2022-12-20T09:14:28.135Z,8.75
2022-12-20T09:16:55.936Z,9.02
2022-12-20T09:19:25.023Z,7.90
2022-12-20T09:21:53.112Z,9.02
2022-12-20T09:24:20.851Z,8.32
2022-12-20T09:26:49.297Z,8.13
2022-12-20T09:29:26.975Z,8.77
2022-12-20T09:31:57.661Z,8.63
2022-12-20T09:34:27.445Z,8.50
2022-12-20T09:36:55.518Z,8.70
2022-12-20T09:39:23.239Z,9.57
2022-12-20T09:41:51.163Z,10.10
2022-12-20T09:44:24.848Z,9.65
2022-12-20T09:46:56.230Z,8.75
2022-12-20T09:49:29.138Z,9.18
2022-12-20T09:54:47.213Z,9.25
2022-12-20T09:57:25.003Z,8.95
2022-12-20T09:59:52.857Z,8.40
2022-12-20T10:05:20.901Z,8.95
2022-12-20T10:08:02.748Z,8.30
2022-12-20T10:10:55.994Z,9.10
2022-12-20T10:19:38.434Z,8.13
2022-12-20T10:22:17.772Z,7.97
2022-12-20T10:24:54.033Z,8.38
2022-12-20T10:27:36.162Z,8.10
2022-12-20T10:30:12.328Z,8.20
2022-12-20T10:32:41.170Z,9.15
2022-12-20T10:35:24.149Z,8.73
2022-12-20T10:43:29.523Z,8.40
2022-12-20T10:46:01.034Z,8.60
2022-12-20T10:48:35.108Z,9.07
2022-12-20T10:51:16.472Z,8.73
2022-12-20T10:53:56.026Z,8.65
2022-12-20T10:56:28.687Z,10.35
2022-12-20T10:58:59.813Z,9.60
2022-12-20T11:01:39.224Z,9.35
2022-12-20T11:04:35.046Z,9.80
2022-12-20T11:07:25.443Z,9.77
2022-12-20T11:09:57.708Z,9.77
2022-12-20T11:12:28.772Z,10.15
2022-12-20T11:15:12.987Z,9.65
2022-12-20T11:17:57.216Z,9.98
2022-12-20T11:20:39.235Z,9.75
2022-12-20T11:23:22.402Z,10.65
2022-12-20T11:26:07.417Z,11.27
2022-12-20T11:28:58.360Z,12.20
2022-12-20T11:31:35.922Z,12.32
2022-12-20T11:34:16.696Z,13.18
2022-12-20T11:40:07.176Z,12.55
2022-12-20T11:42:55.233Z,13.30
2022-12-20T11:45:37.672Z,14.02
2022-12-20T11:48:32.287Z,13.40
2022-12-20T11:51:15.205Z,15.20
2022-12-20T11:53:51.441Z,13.10
2022-12-20T11:56:24.304Z,13.82
2022-12-20T12:01:54.085Z,12.88
2022-12-20T12:04:31.644Z,13.02
2022-12-20T12:07:09.830Z,11.32
2022-12-20T12:09:44.549Z,12.38
2022-12-20T12:12:26.337Z,13.25
2022-12-20T12:15:03.343Z,12.77
2022-12-20T12:17:48.149Z,13.20
2022-12-20T12:20:28.724Z,12.85
2022-12-20T12:23:12.080Z,12.77
2022-12-20T12:25:42.047Z,12.50
2022-12-20T12:28:13.716Z,11.90
2022-12-20T12:30:57.669Z,14.13
2022-12-20T12:33:38.488Z,12.35
2022-12-20T12:37:03.691Z,13.23
2022-12-20T12:40:13.767Z,13.43
2022-12-20T12:43:12.768Z,13.68
2022-12-20T12:45:51.217Z,12.75
2022-12-20T12:48:29.824Z,12.75
2022-12-20T12:51:16.390Z,13.18
2022-12-20T12:53:47.254Z,13.88
2022-12-20T12:56:47.251Z,15.50
2022-12-20T12:59:46.320Z,12.90
2022-12-20T13:02:54.409Z,13.27
2022-12-20T13:05:56.343Z,12.75
2022-12-20T13:08:51.832Z,12.73
2022-12-20T13:11:41.472Z,11.88
2022-12-20T13:14:22.823Z,13.07
2022-12-20T13:17:26.004Z,12.52
2022-12-20T13:19:49.845Z,13.43
2022-12-20T13:22:31.380Z,14.38
2022-12-20T13:25:28.437Z,14.05
2022-12-20T13:28:36.512Z,15.25
2022-12-20T13:31:33.368Z,14.45
2022-12-20T13:34:07.354Z,14.48
2022-12-20T13:36:45.936Z,12.55
2022-12-20T13:39:35.578Z,14.00
2022-12-20T13:42:33.557Z,13.02
2022-12-20T13:45:21.944Z,13.68
2022-12-20T13:47:58.963Z,15.55
2022-12-20T13:51:02.051Z,14.40
2022-12-20T13:53:33.372Z,14.90
2022-12-20T13:56:42.749Z,13.18
2022-12-20T13:59:25.813Z,13.60
2022-12-20T14:04:54.709Z,13.82
2022-12-20T14:07:37.846Z,13.00
2022-12-20T14:12:57.580Z,13.05
2022-12-20T14:15:38.525Z,13.57
2022-12-20T14:18:30.795Z,13.77
2022-12-20T14:21:15.297Z,13.57
2022-12-20T14:23:55.552Z,12.80
2022-12-20T14:26:31.605Z,13.30
2022-12-20T14:29:06.801Z,14.30
2022-12-20T14:31:46.164Z,15.05
2022-12-20T14:34:29.092Z,13.25
2022-12-20T14:37:37.515Z,14.85
2022-12-20T14:40:26.447Z,15.05
2022-12-20T14:42:59.743Z,16.33
2022-12-20T14:45:34.752Z,15.65
2022-12-20T14:48:12.554Z,14.27
2022-12-20T14:51:02.995Z,16.85
2022-12-20T14:53:31.946Z,15.05
2022-12-20T14:56:05.146Z,15.20
2022-12-20T14:58:40.159Z,15.77
2022-12-20T15:01:23.060Z,14.90
2022-12-20T15:06:52.908Z,16.88
2022-12-20T15:09:23.763Z,14.90
2022-12-20T15:12:00.293Z,14.95
2022-12-20T15:14:46.771Z,14.70
2022-12-20T15:17:16.022Z,14.10
2022-12-20T15:19:45.756Z,14.50
2022-12-20T15:22:17.502Z,14.60
2022-12-20T15:24:45.846Z,15.48
2022-12-20T15:27:15.093Z,15.07
2022-12-20T15:29:43.665Z,15.23
2022-12-20T15:32:28.420Z,14.55
2022-12-20T15:34:58.274Z,15.52
2022-12-20T15:37:26.283Z,15.77
2022-12-20T15:39:55.482Z,15.10
2022-12-20T15:42:25.664Z,14.32
2022-12-20T15:44:53.716Z,15.70
2022-12-20T15:47:21.918Z,14.63
2022-12-20T15:49:50.854Z,15.88
2022-12-20T15:52:23.961Z,15.85
2022-12-20T15:54:52.562Z,15.32
2022-12-20T15:57:21.159Z,15.75
2022-12-20T16:00:00.404Z,16.23
2022-12-20T16:02:31.770Z,15.73
2022-12-20T16:05:01.637Z,14.20
2022-12-20T16:07:31.386Z,13.65
2022-12-20T16:09:59.349Z,15.38
2022-12-20T16:12:31.721Z,13.98
2022-12-20T16:14:59.802Z,15.35
2022-12-20T16:17:27.870Z,14.23
2022-12-20T16:19:55.926Z,16.30
2022-12-20T16:22:26.426Z,14.80
2022-12-20T16:24:56.264Z,15.20
2022-12-20T16:27:24.491Z,16.13
2022-12-20T16:29:52.563Z,17.02
2022-12-20T16:32:22.825Z,14.85
2022-12-20T16:34:51.449Z,15.50
2022-12-20T16:37:20.391Z,15.55
2022-12-20T16:39:48.925Z,16.08
2022-12-20T16:42:22.698Z,18.52
2022-12-20T16:44:52.939Z,17.60
2022-12-20T16:47:21.113Z,17.25
2022-12-20T16:49:52.871Z,16.48
2022-12-20T16:52:23.815Z,15.90
2022-12-20T16:54:52.594Z,15.90
2022-12-20T16:57:22.513Z,16.38
2022-12-20T16:59:50.533Z,17.88
2022-12-20T17:02:25.552Z,17.63
2022-12-20T17:04:53.608Z,18.95
2022-12-20T17:07:21.658Z,18.77
2022-12-20T17:12:36.956Z,18.48
2022-12-20T17:15:05.739Z,16.95
2022-12-20T17:17:33.857Z,16.92
2022-12-20T17:20:02.056Z,17.60
2022-12-20T17:22:30.173Z,16.98
2022-12-20T17:24:58.162Z,17.20
2022-12-20T17:27:26.314Z,16.98
2022-12-20T17:29:55.824Z,17.85
2022-12-20T17:32:26.655Z,17.83
2022-12-20T17:34:56.121Z,15.38
2022-12-20T17:37:25.173Z,16.27
2022-12-20T17:39:53.468Z,16.80
2022-12-20T17:42:25.517Z,14.38
2022-12-20T17:44:58.670Z,18.08
2022-12-20T17:47:27.014Z,16.13
2022-12-20T17:49:55.034Z,15.68
2022-12-20T17:52:23.014Z,16.88
2022-12-20T17:54:51.132Z,15.40
2022-12-20T17:57:19.382Z,14.10
2022-12-20T17:59:47.427Z,14.38
2022-12-20T18:02:25.260Z,13.52
2022-12-20T18:04:53.868Z,13.48
2022-12-20T18:07:22.236Z,13.07
2022-12-20T18:09:50.730Z,13.73
2022-12-20T18:12:19.264Z,13.90
2022-12-20T18:14:49.428Z,13.48
2022-12-20T18:17:17.886Z,13.38
2022-12-20T18:19:47.805Z,12.57
2022-12-20T18:22:16.134Z,13.52
2022-12-20T18:24:44.435Z,13.10
2022-12-20T18:27:12.443Z,14.05
2022-12-20T18:29:46.293Z,13.23
2022-12-20T21:19:38.836Z,8.77
2022-12-20T21:22:06.471Z,9.02
2022-12-20T21:24:34.171Z,8.63
2022-12-20T21:27:02.920Z,8.52
2022-12-20T21:29:31.329Z,9.02
2022-12-20T21:31:59.154Z,8.82
2022-12-20T21:34:27.284Z,8.43
2022-12-20T21:37:06.951Z,8.73
2022-12-20T21:39:40.634Z,8.60
2022-12-20T21:42:17.822Z,7.97
2022-12-20T21:44:47.738Z,7.35
2022-12-20T21:47:18.266Z,7.05
2022-12-20T21:49:49.109Z,7.25
2022-12-20T21:52:20.995Z,9.07
2022-12-20T21:54:51.116Z,8.17
2022-12-20T21:57:24.007Z,7.35
2022-12-20T21:59:54.447Z,6.80
2022-12-20T22:02:24.393Z,7.28
2022-12-20T22:04:55.163Z,7.95
2022-12-20T22:07:35.523Z,8.45
2022-12-20T22:10:03.244Z,7.75
2022-12-20T22:12:33.163Z,7.80
2022-12-20T22:15:05.006Z,8.10
2022-12-20T22:17:41.029Z,7.87
2022-12-20T22:20:13.601Z,7.50
2022-12-20T22:22:49.447Z,8.43
2022-12-20T22:25:26.087Z,8.10
2022-12-20T22:27:54.225Z,7.13
2022-12-20T22:30:24.924Z,7.03
2022-12-20T22:32:55.669Z,8.60
2022-12-20T22:35:26.174Z,7.95
2022-12-20T22:37:55.551Z,9.20
2022-12-20T22:40:23.476Z,8.98
2022-12-20T22:42:53.542Z,8.65
2022-12-20T22:45:21.071Z,8.48
2022-12-20T22:47:48.885Z,9.55
2022-12-20T22:50:16.737Z,8.73
2022-12-20T22:52:45.193Z,7.25
2022-12-20T22:55:14.606Z,7.32
2022-12-20T22:57:42.678Z,7.28
2022-12-20T23:00:13.145Z,7.72
2022-12-20T23:02:41.593Z,7.85
2022-12-20T23:05:10.559Z,6.55
2022-12-20T23:07:38.994Z,6.50
2022-12-20T23:10:28.068Z,5.43
2022-12-20T23:13:14.694Z,6.07
2022-12-20T23:15:42.737Z,6.55
2022-12-20T23:18:10.759Z,6.43
2022-12-20T23:20:55.937Z,6.88
2022-12-20T23:23:23.666Z,7.38
2022-12-20T23:25:52.188Z,7.03
2022-12-20T23:28:21.292Z,7.32
2022-12-20T23:30:49.089Z,7.35
2022-12-20T23:33:16.863Z,8.95
2022-12-20T23:35:48.003Z,8.05
2022-12-20T23:38:27.304Z,7.93
2022-12-20T23:40:54.882Z,9.07
2022-12-20T23:46:23.947Z,8.25
2022-12-20T23:48:52.234Z,6.82
2022-12-20T23:51:22.991Z,7.30
2022-12-20T23:53:53.517Z,7.35
2022-12-20T23:56:26.210Z,6.95
2022-12-20T23:58:56.069Z,7.18
